Time;durP1;ratioP1;P1;durP2;ratioP2;P2;SDS_P1;SDS_P2;PMS_P1;PMS_P2;Temp;Humidity;BMP_temperature;BMP_pressure;BME280_temperature;BME280_humidity;BME280_pressure;Samples;Min_cycle;Max_cycle;Signal;HPM_P1;HPM_P2
2021/07/27 00:00:46;;;;;;;4.60;3.63;;;;;;;21.02;66.48;99870.59;10304018;28;20117;-69
2021/07/27 00:05:47;;;;;;;4.68;4.28;;;;;;;21.04;66.92;99875.81;10295275;28;20050;-69
2021/07/27 00:11:07;;;;;;;4.07;3.13;;;;;;;21.08;66.44;99879.78;10294398;28;20141;-69
2021/07/27 00:16:09;;;;;;;;;;;;;;;21.09;66.33;99873.34;10295165;28;20084;-69
2021/07/27 00:21:10;;;;;;;3.75;3.22;;;;;;;21.05;66.48;99871.22;10300295;28;20023;-69
2021/07/27 00:26:14;;;;;;;3.70;3.40;;;;;;;21.01;66.51;99874.31;10299309;28;20073;-69
2021/07/27 00:31:19;;;;;;;4.15;3.15;;;;;;;20.97;66.71;99883.03;10287279;28;20669;-69
2021/07/27 00:36:20;;;;;;;4.13;3.30;;;;;;;20.86;66.40;99881.75;10289597;28;20397;-68
2021/07/27 00:41:22;;;;;;;4.13;3.13;;;;;;;20.83;66.31;99869.44;10290899;28;20140;-68
2021/07/27 00:46:23;;;;;;;3.88;3.45;;;;;;;20.83;65.79;99868.63;10302146;28;20569;-69
2021/07/27 00:51:25;;;;;;;3.75;2.75;;;;;;;20.76;66.21;99875.84;10311056;28;20061;-68
2021/07/27 00:56:26;;;;;;;4.47;3.47;;;;;;;20.71;65.96;99887.28;10287963;28;20104;-69
2021/07/27 01:01:30;;;;;;;5.63;3.83;;;;;;;20.74;65.76;99892.28;10294958;28;20046;-68
2021/07/27 01:06:31;;;;;;;3.47;3.17;;;;;;;20.64;65.76;99886.38;10289627;28;20536;-69
2021/07/27 01:11:42;;;;;;;5.30;3.10;;;;;;;20.54;65.91;99896.72;10291657;28;20050;-69
2021/07/27 01:16:44;;;;;;;2.80;2.60;;;;;;;20.56;66.14;99900.06;10291938;28;20053;-67
2021/07/27 01:37:54;;;;;;;3.38;3.08;;;;;;;20.45;65.74;99886.03;10292613;28;20051;-71
2021/07/27 01:42:56;;;;;;;4.07;3.35;;;;;;;20.43;66.05;99890.81;10289477;28;20343;-70
2021/07/27 01:47:57;;;;;;;3.80;2.80;;;;;;;20.43;65.99;99895.38;10296409;28;20054;-69
2021/07/27 01:53:04;;;;;;;3.75;3.30;;;;;;;20.23;66.77;99893.34;10294066;28;20510;-69
2021/07/27 01:58:06;;;;;;;4.13;2.90;;;;;;;20.25;66.79;99893.16;10294877;28;20042;-69
2021/07/27 02:03:07;;;;;;;4.10;2.90;;;;;;;20.34;66.84;99891.97;10293591;28;20049;-68
2021/07/27 02:08:09;;;;;;;4.80;2.72;;;;;;;20.53;66.40;99889.63;10297623;28;20046;-68
2021/07/27 02:13:15;;;;;;;4.60;3.63;;;;;;;20.48;65.74;99882.94;10307455;28;20046;-69
2021/07/27 02:18:16;;;;;;;3.35;3.05;;;;;;;20.31;66.67;99892.38;10300280;28;20399;-69
2021/07/27 02:23:19;;;;;;;4.30;3.40;;;;;;;20.27;66.99;99888.41;10295738;28;20046;-69
2021/07/27 02:28:21;;;;;;;3.28;2.95;;;;;;;20.29;67.11;99887.16;10310227;28;20046;-69
2021/07/27 02:33:23;;;;;;;3.95;3.47;;;;;;;20.34;66.93;99891.16;10314886;28;20104;-69
2021/07/27 02:38:24;;;;;;;2.78;2.47;;;;;;;20.33;66.69;99893.03;10345088;28;20030;-69
2021/07/27 02:43:30;;;;;;;5.30;3.42;;;;;;;20.31;67.27;99897.78;10325648;28;20058;-69
2021/07/27 02:48:34;;;;;;;3.80;3.28;;;;;;;20.36;66.86;99898.03;10310489;28;20124;-69
2021/07/27 02:53:36;;;;;;;4.28;3.88;;;;;;;20.30;67.04;99893.41;10303530;28;20070;-69
2021/07/27 02:58:39;;;;;;;5.80;3.92;;;;;;;20.32;67.16;99899.47;10308655;28;20062;-69
2021/07/27 03:03:40;;;;;;;4.57;3.40;;;;;;;20.21;67.99;99894.59;10312498;28;20042;-69
2021/07/27 03:13:58;;;;;;;4.72;4.10;;;;;;;20.05;69.33;99899.22;10301639;28;20116;-70
2021/07/27 03:19:00;;;;;;;3.95;3.38;;;;;;;20.01;69.67;99902.50;10311112;28;20589;-69
2021/07/27 03:24:01;;;;;;;4.35;3.95;;;;;;;20.00;70.05;99898.16;10305623;28;20365;-69
2021/07/27 03:29:06;;;;;;;5.03;4.53;;;;;;;19.88;70.08;99919.44;10300624;28;20082;-69
2021/07/27 03:34:08;;;;;;;4.53;3.55;;;;;;;19.87;70.39;99918.59;10295000;28;20394;-69
2021/07/27 03:39:09;;;;;;;6.30;4.10;;;;;;;19.91;70.38;99910.97;10293412;28;20058;-69
2021/07/27 03:44:14;;;;;;;4.55;3.78;;;;;;;19.90;70.30;99912.81;10297857;28;20050;-69
2021/07/27 03:49:15;;;;;;;4.15;3.75;;;;;;;19.92;70.63;99899.09;10304845;28;20069;-69
2021/07/27 03:54:17;;;;;;;5.40;4.25;;;;;;;19.95;69.75;99907.66;10287509;28;20100;-69
2021/07/27 03:59:18;;;;;;;5.50;3.83;;;;;;;19.90;70.58;99895.78;10297045;28;20056;-69
2021/07/27 04:04:20;;;;;;;5.80;4.32;;;;;;;19.94;70.72;99905.16;10299863;28;20484;-69
2021/07/27 04:09:24;;;;;;;4.78;4.28;;;;;;;19.95;70.34;99914.91;10296502;28;20141;-69
2021/07/27 04:14:25;;;;;;;6.10;4.07;;;;;;;20.02;70.50;99915.81;10298982;28;20061;-70
2021/07/27 04:19:27;;;;;;;5.75;4.40;;;;;;;20.09;70.02;99910.50;10303651;28;20054;-69
2021/07/27 04:24:28;;;;;;;4.00;3.60;;;;;;;20.17;69.75;99920.34;10302522;28;20586;-68
2021/07/27 04:29:31;;;;;;;5.82;4.22;;;;;;;20.12;69.97;99921.75;10290610;28;20105;-68
2021/07/27 04:34:32;;;;;;;5.03;3.80;;;;;;;20.04;70.24;99923.72;10294383;28;20073;-69
2021/07/27 04:39:35;;;;;;;4.65;4.05;;;;;;;19.97;70.23;99926.38;10295783;28;20077;-69
2021/07/27 04:44:39;;;;;;;6.07;4.40;;;;;;;19.89;70.57;99926.50;10303266;28;20050;-67
2021/07/27 04:49:43;;;;;;;6.53;4.32;;;;;;;19.74;71.23;99930.06;10299122;28;20046;-68
2021/07/27 04:54:50;;;;;;;;;;;;;;;19.62;72.26;99936.97;10297031;28;20548;-68
2021/07/27 04:59:52;;;;;;;;;;;;;;;19.58;72.69;99924.91;10287875;28;19922;-68
2021/07/27 05:04:53;;;;;;;;;;;;;;;19.67;72.39;99926.47;10288553;28;20012;-68
2021/07/27 05:09:55;;;;;;;;;;;;;;;19.78;72.60;99925.97;10283875;28;19929;-69
2021/07/27 05:14:56;;;;;;;;;;;;;;;19.70;73.35;99912.56;10289667;28;20032;-68
2021/07/27 05:19:58;;;;;;;;;;;;;;;19.66;73.48;99915.84;10289585;28;19933;-69
2021/07/27 05:24:59;;;;;;;;;;;;;;;19.74;72.92;99919.28;10288642;28;19973;-68
2021/07/27 05:30:03;;;;;;;;;;;;;;;19.78;72.60;99925.97;10292891;28;21231;-68
2021/07/27 05:35:05;;;;;;;;;;;;;;;19.85;72.28;99925.22;10290096;28;19945;-68
2021/07/27 05:40:07;;;;;;;;;;;;;;;20.17;71.18;99910.34;10291236;28;19965;-68
2021/07/27 05:45:09;;;;;;;;;;;;;;;20.45;69.65;99915.78;10298528;28;20396;-69
2021/07/27 05:50:11;;;;;;;;;;;;;;;20.40;69.97;99906.59;10297818;28;20011;-68
2021/07/27 05:55:13;;;;;;;;;;;;;;;20.26;69.99;99911.06;10297703;28;20388;-67
2021/07/27 06:00:14;;;;;;;;;;;;;;;20.26;69.85;99913.75;10293414;28;19976;-70
2021/07/27 06:05:16;;;;;;;;;;;;;;;20.24;69.83;99915.81;10296650;28;20025;-69
2021/07/27 06:10:17;;;;;;;;;;;;;;;20.40;69.95;99926.34;10296332;28;19989;-69
2021/07/27 06:15:19;;;;;;;;;;;;;;;20.43;69.12;99907.03;10299595;28;19922;-70
2021/07/27 06:20:20;;;;;;;;;;;;;;;20.61;68.65;99916.50;10297832;28;19972;-67
2021/07/27 06:25:21;;;;;;;;;;;;;;;20.97;67.84;99915.50;10307718;28;20011;-67
2021/07/27 06:30:23;;;;;;;;;;;;;;;21.17;66.54;99913.75;10297338;28;19953;-67
2021/07/27 06:35:24;;;;;;;;;;;;;;;21.10;66.04;99904.75;10293349;28;19941;-69
2021/07/27 06:40:26;;;;;;;;;;;;;;;21.15;65.84;99909.56;10299821;28;19930;-68
2021/07/27 06:45:27;;;;;;;;;;;;;;;21.23;65.71;99903.13;10301846;28;19921;-67
2021/07/27 06:50:29;;;;;;;;;;;;;;;21.32;64.90;99905.47;10296184;28;19944;-66
2021/07/27 06:55:30;;;;;;;;;;;;;;;21.35;64.56;99925.91;10314932;28;20005;-67
2021/07/27 07:00:34;;;;;;;;;;;;;;;21.32;64.50;99939.84;10298021;28;20013;-68
2021/07/27 07:05:38;;;;;;;;;;;;;;;21.22;64.68;99952.91;10297925;28;19930;-70
2021/07/27 07:10:40;;;;;;;;;;;;;;;21.33;64.12;99949.63;10298385;28;20016;-68
2021/07/27 07:15:42;;;;;;;;;;;;;;;21.45;63.96;99942.59;10299493;28;20076;-67
2021/07/27 07:20:44;;;;;;;;;;;;;;;21.58;64.05;99927.47;10299927;28;19976;-68
2021/07/27 07:25:46;;;;;;;;;;;;;;;21.60;63.73;99936.22;10294151;28;19972;-67
2021/07/27 07:30:48;;;;;;;;;;;;;;;21.84;63.28;99946.50;10296400;28;19928;-67
2021/07/27 07:35:49;;;;;;;;;;;;;;;22.02;62.34;99942.34;10296830;28;20053;-67
2021/07/27 07:40:50;;;;;;;;;;;;;;;22.16;62.24;99948.63;10297318;28;19921;-69
2021/07/27 07:45:52;;;;;;;;;;;;;;;22.15;62.02;99936.13;10301962;28;19981;-69
2021/07/27 07:50:53;;;;;;;;;;;;;;;21.94;62.21;99934.44;10295928;28;19925;-70
2021/07/27 07:55:55;;;;;;;;;;;;;;;22.04;62.13;99945.72;10297817;28;19925;-71
2021/07/27 08:00:56;;;;;;;;;;;;;;;22.14;62.23;99946.13;10292215;28;20044;-69
2021/07/27 08:05:57;;;;;;;;;;;;;;;22.19;61.78;99959.06;10290567;28;20017;-69
2021/07/27 08:10:59;;;;;;;;;;;;;;;22.32;61.75;99950.13;10296733;28;19961;-70
2021/07/27 08:16:00;;;;;;;;;;;;;;;22.35;62.21;99964.13;10294376;28;20384;-70
2021/07/27 08:21:02;;;;;;;;;;;;;;;22.52;61.75;99959.13;10295506;28;20370;-70
2021/07/27 08:26:05;;;;;;;;;;;;;;;22.68;60.29;99959.72;10293821;28;19980;-69
2021/07/27 08:31:06;;;;;;;;;;;;;;;22.74;60.00;99945.31;10297293;28;19939;-68
2021/07/27 08:36:08;;;;;;;;;;;;;;;22.98;60.07;99942.97;10296737;28;20418;-70
2021/07/27 08:41:09;;;;;;;;;;;;;;;22.82;59.79;99964.09;10297772;28;20020;-69
2021/07/27 08:46:13;;;;;;;;;;;;;;;22.88;60.14;99957.81;10295276;28;20576;-70
2021/07/27 08:51:16;;;;;;;;;;;;;;;23.50;57.65;99957.44;10298543;28;19926;-70
2021/07/27 08:56:17;;;;;;;;;;;;;;;23.88;56.24;99959.38;10292878;28;20451;-70
2021/07/27 09:01:23;;;;;;;;;;;;;;;23.85;57.46;99962.50;10294163;28;20736;-68
2021/07/27 09:06:24;;;;;;;;;;;;;;;23.85;56.00;99976.09;10297852;28;19922;-68
2021/07/27 09:11:26;;;;;;;;;;;;;;;23.75;57.13;99983.84;10297407;28;20017;-69
2021/07/27 09:16:27;;;;;;;;;;;;;;;23.93;57.48;99973.16;10297050;28;19940;-69
2021/07/27 09:21:28;;;;;;;;;;;;;;;24.47;55.65;99970.88;10306289;28;19925;-70
2021/07/27 09:26:30;;;;;;;;;;;;;;;24.88;54.63;99964.03;10305602;28;19922;-69
2021/07/27 09:31:31;;;;;;;;;;;;;;;24.80;52.87;99983.41;10303677;28;19922;-68
2021/07/27 09:36:34;;;;;;;;;;;;;;;25.29;52.09;99974.50;10303070;28;20348;-71
2021/07/27 09:41:35;;;;;;;;;;;;;;;25.34;51.92;99964.63;10300290;28;19928;-69
2021/07/27 09:46:36;;;;;;;;;;;;;;;25.05;51.08;99967.00;10292747;28;19921;-70
2021/07/27 09:51:38;;;;;;;;;;;;;;;25.48;51.33;99959.03;10302391;28;20323;-71
2021/07/27 09:56:40;;;;;;;;;;;;;;;25.67;50.30;99959.78;10303261;28;20442;-69
2021/07/27 10:01:51;;;;;;;;;;;;;;;26.07;49.34;99960.09;10291956;28;19973;-71
2021/07/27 10:06:53;;;;;;;;;;;;;;;26.60;47.31;99963.03;10296352;28;20419;-70
2021/07/27 10:12:04;;;;;;;;;;;;;;;26.77;47.71;99965.94;10300267;28;20463;-70
2021/07/27 10:17:06;;;;;;;;;;;;;;;26.39;47.59;99959.81;10298475;28;19925;-70
2021/07/27 10:22:08;;;;;;;;;;;;;;;26.96;47.52;99953.81;10293841;28;19933;-69
2021/07/27 10:27:16;;;;;;;;;;;;;;;27.78;43.81;99960.13;10300445;28;20008;-69
2021/07/27 10:32:21;;;;;;;;;;;;;;;27.26;45.92;99951.97;10296394;28;20458;-70
2021/07/27 10:37:23;;;;;;;;;;;;;;;27.16;45.66;99947.13;10300526;28;19922;-70
2021/07/27 10:42:36;;;;;;;;;;;;;;;26.60;46.01;99949.38;10300164;28;19929;-69
2021/07/27 10:47:39;;;;;;;;;;;;;;;26.42;47.69;99942.97;10299816;28;20447;-70
2021/07/27 10:52:42;;;;;;;;;;;;;;;26.16;47.58;99943.41;10300661;28;20012;-69
2021/07/27 10:57:46;;;;;;;;;;;;;;;25.85;48.46;99937.13;10302610;28;20045;-70
2021/07/27 11:02:55;;;;;;;;;;;;;;;25.54;49.54;99944.47;10316068;28;20017;-69
2021/07/27 11:07:56;;;;;;;;;;;;;;;25.65;49.57;99946.41;10308360;28;19922;-69
2021/07/27 11:12:58;;;;;;;;;;;;;;;25.69;49.41;99936.72;10317735;28;20016;-69
2021/07/27 11:18:01;;;;;;;;;;;;;;;26.17;48.61;99936.91;10300042;28;20041;-68
2021/07/27 11:23:08;;;;;;;;;;;;;;;26.61;48.06;99923.75;10302710;28;19929;-70
2021/07/27 11:28:13;;;;;;;;;;;;;;;26.63;47.59;99924.34;10299968;28;19934;-69
2021/07/27 11:33:16;;;;;;;;;;;;;;;26.42;48.34;99912.97;10298637;28;20008;-69
2021/07/27 11:38:21;;;;;;;;;;;;;;;26.38;48.35;99903.59;10298814;28;20001;-70
2021/07/27 11:43:29;;;;;;;;;;;;;;;26.26;49.54;99910.94;10297451;28;19968;-70
2021/07/27 11:48:32;;;;;;;;;;;;;;;26.40;49.22;99906.06;10300779;28;20009;-68
2021/07/27 11:53:42;;;;;;;;;;;;;;;26.36;47.79;99894.81;10300036;28;20342;-68
2021/07/27 11:58:47;;;;;;;;;;;;;;;26.42;47.11;99898.47;10297048;28;20012;-67
2021/07/27 12:03:48;;;;;;;;;;;;;;;26.74;46.71;99889.97;10296545;28;19932;-69
2021/07/27 12:08:50;;;;;;;;;;;;;;;27.25;45.54;99884.72;10296255;28;20292;-69
2021/07/27 12:13:51;;;;;;;;;;;;;;;27.60;44.40;99870.94;10298438;28;20027;-69
2021/07/27 12:18:52;;;;;;;;;;;;;;;27.89;44.88;99864.63;10296932;28;19926;-71
2021/07/27 12:23:54;;;;;;;;;;;;;;;27.76;45.39;99852.94;10297459;28;19964;-68
2021/07/27 12:28:55;;;;;;;;;;;;;;;27.51;45.37;99845.91;10297406;28;19969;-69
2021/07/27 12:33:56;;;;;;;;;;;;;;;27.28;45.61;99848.75;10296490;28;20060;-70
2021/07/27 12:38:58;;;;;;;;;;;;;;;27.22;45.82;99846.97;10294780;28;19929;-71
2021/07/27 12:43:59;;;;;;;;;;;;;;;27.26;46.21;99832.59;10304199;28;20012;-70
2021/07/27 12:49:00;;;;;;;;;;;;;;;27.68;45.19;99823.25;10296123;28;19936;-69
2021/07/27 12:54:02;;;;;;;;;;;;;;;27.86;44.58;99806.63;10295253;28;19925;-69
2021/07/27 12:59:04;;;;;;;;;;;;;;;28.19;43.29;99807.69;10294751;28;20360;-69
2021/07/27 13:04:05;;;;;;;;;;;;;;;28.33;42.83;99793.63;10295542;28;19931;-70
2021/07/27 13:09:06;;;;;;;;;;;;;;;28.03;42.95;99797.59;10290773;28;20011;-70
2021/07/27 13:14:08;;;;;;;;;;;;;;;28.21;43.62;99815.66;10295650;28;19957;-71
2021/07/27 13:19:10;;;;;;;;;;;;;;;28.33;43.31;99807.31;10299113;28;20384;-71
2021/07/27 13:24:11;;;;;;;;;;;;;;;28.60;41.59;99810.22;10297817;28;20021;-70
2021/07/27 13:29:13;;;;;;;;;;;;;;;28.77;41.59;99823.00;10296052;28;19980;-71
2021/07/27 13:34:16;;;;;;;;;;;;;;;27.86;42.41;99825.75;10295779;28;19922;-71
2021/07/27 13:39:18;;;;;;;;;;;;;;;27.83;42.58;99814.47;10309140;28;19929;-71
2021/07/27 13:44:19;;;;;;;;;;;;;;;27.43;43.52;99804.47;10295783;28;20012;-69
2021/07/27 13:49:21;;;;;;;;;;;;;;;27.21;45.02;99807.06;10296440;28;19929;-70
2021/07/27 13:54:24;;;;;;;;;;;;;;;26.99;45.12;99805.00;10294802;28;19988;-70
2021/07/27 13:59:25;;;;;;;;;;;;;;;26.72;45.76;99793.81;10297279;28;20036;-69
2021/07/27 14:04:33;;;;;;;;;;;;;;;26.83;45.70;99790.25;10297508;28;19928;-70
2021/07/27 14:09:34;;;;;;;;;;;;;;;26.99;44.86;99794.94;10299809;28;20027;-70
2021/07/27 14:14:36;;;;;;;;;;;;;;;26.91;44.91;99798.03;10298895;28;19928;-69
2021/07/27 14:19:37;;;;;;;;;;;;;;;26.89;45.12;99789.25;10300590;28;19922;-69
2021/07/27 14:24:38;;;;;;;;;;;;;;;26.98;43.84;99785.06;10302312;28;19925;-69
2021/07/27 14:29:40;;;;;;;;;;;;;;;27.07;42.45;99784.66;10302732;28;24896;-69
2021/07/27 14:34:41;;;;;;;;;;;;;;;27.13;42.16;99773.63;10299382;28;19921;-69
2021/07/27 14:39:42;;;;;;;;;;;;;;;27.44;42.45;99767.88;10301567;28;19952;-69
2021/07/27 14:44:44;;;;;;;;;;;;;;;27.42;42.25;99772.78;10299530;28;19929;-68
2021/07/27 14:49:45;;;;;;;;;;;;;;;27.41;43.22;99776.59;10295244;28;19976;-69
2021/07/27 14:54:47;;;;;;;;;;;;;;;27.58;42.65;99768.38;10297992;28;19948;-69
2021/07/27 14:59:48;;;;;;;;;;;;;;;27.14;43.07;99760.78;10299432;28;20040;-69
2021/07/27 15:04:49;;;;;;;;;;;;;;;26.82;43.33;99766.72;10298725;28;20025;-69
2021/07/27 15:09:51;;;;;;;;;;;;;;;26.83;43.29;99762.09;10298974;28;19987;-69
2021/07/27 15:14:52;;;;;;;;;;;;;;;26.86;44.14;99747.94;10312631;28;19972;-70
2021/07/27 15:19:53;;;;;;;;;;;;;;;26.81;43.08;99755.00;10302701;28;19921;-69
2021/07/27 15:25:01;;;;;;;;;;;;;;;26.55;44.32;99745.41;10298026;28;19930;-69
2021/07/27 15:30:06;;;;;;;;;;;;;;;26.49;43.71;99738.19;10300150;28;20307;-68
2021/07/27 15:35:07;;;;;;;;;;;;;;;26.32;43.15;99749.03;10298266;28;19950;-69
2021/07/27 15:40:09;;;;;;;;;;;;;;;26.24;43.85;99750.22;10299174;28;20296;-70
2021/07/27 15:45:11;;;;;;;;;;;;;;;26.18;44.37;99758.53;10297851;28;20430;-69
2021/07/27 15:50:12;;;;;;;;;;;;;;;25.83;45.13;99765.59;10297465;28;19969;-69
2021/07/27 15:55:14;;;;;;;;;;;;;;;25.47;45.69;99800.16;10288526;28;19921;-69
2021/07/27 16:00:15;;;;;;;;;;;;;;;25.19;47.66;99793.41;10299516;28;20013;-71
2021/07/27 16:05:16;;;;;;;;;;;;;;;25.17;48.92;99762.00;10299111;28;19932;-70
2021/07/27 16:10:18;;;;;;;;;;;;;;;25.05;50.04;99693.91;10292513;28;19929;-69
2021/07/27 16:15:19;;;;;;;;;;;;;;;25.03;50.81;99718.63;10297846;28;20657;-69
2021/07/27 16:20:21;;;;;;;;;;;;;;;24.79;51.27;99744.13;10294540;28;20313;-70
2021/07/27 16:25:22;;;;;;;;;;;;;;;24.62;52.22;99752.06;10296228;28;20634;-70
2021/07/27 16:30:23;;;;;;;;;;;;;;;24.77;51.69;99752.50;10293306;28;20074;-70
2021/07/27 16:35:25;;;;;;;;;;;;;;;24.77;52.00;99759.81;10301709;28;20568;-68
2021/07/27 16:40:26;;;;;;;;;;;;;;;24.98;51.12;99748.47;10294073;28;19922;-68
2021/07/27 16:45:27;;;;;;;;;;;;;;;25.09;49.75;99738.66;10296765;28;19921;-69
2021/07/27 16:50:29;;;;;;;;;;;;;;;25.11;50.98;99738.44;10293738;28;20375;-69
2021/07/27 16:55:32;;;;;;;;;;;;;;;25.08;51.23;99731.56;10295068;28;19929;-70
2021/07/27 17:00:33;;;;;;;;;;;;;;;25.08;51.62;99722.56;10294558;28;20408;-69
2021/07/27 17:05:36;;;;;;;;;;;;;;;24.96;51.93;99734.22;10297530;28;19922;-70
2021/07/27 17:10:37;;;;;;;;;;;;;;;24.76;51.77;99728.25;10297446;28;20004;-70
2021/07/27 17:15:38;;;;;;;;;;;;;;;24.65;51.82;99727.09;10295621;28;19988;-70
2021/07/27 17:20:46;;;;;;;;;;;;;;;24.57;52.04;99714.63;10296832;28;19925;-69
2021/07/27 17:25:48;;;;;;;;;;;;;;;24.51;51.30;99721.81;10293161;28;19969;-70
2021/07/27 17:30:49;;;;;;;;;;;;;;;24.43;51.48;99713.16;10295676;28;19930;-70
2021/07/27 17:35:51;;;;;;;;;;;;;;;24.32;52.23;99710.13;10294831;28;20018;-68
2021/07/27 17:40:52;;;;;;;;;;;;;;;24.26;52.51;99713.75;10300861;28;19921;-69
2021/07/27 17:45:53;;;;;;;;;;;;;;;24.21;53.05;99718.19;10300852;28;20004;-69
2021/07/27 17:50:56;;;;;;;;;;;;;;;24.09;54.12;99713.50;10304061;28;19965;-69
2021/07/27 17:55:57;;;;;;;;;;;;;;;23.91;55.66;99727.09;10298229;28;20027;-69
2021/07/27 18:00:58;;;;;;;;;;;;;;;23.64;57.04;99730.84;10300938;28;20554;-69
2021/07/27 18:06:00;;;;;;;;;;;;;;;23.58;57.33;99731.72;10301240;28;19926;-70
2021/07/27 18:11:04;;;;;;;;;;;;;;;23.48;57.02;99734.94;10297502;28;19977;-70
2021/07/27 18:16:06;;;;;;;;;;;;;;;23.45;57.22;99731.84;10297798;28;20344;-70
2021/07/27 18:21:07;;;;;;;;;;;;;;;23.42;57.22;99734.97;10302365;28;19953;-70
2021/07/27 18:26:09;;;;;;;;;;;;;;;23.35;57.32;99731.50;10300449;28;19953;-70
2021/07/27 18:31:10;;;;;;;;;;;;;;;23.21;57.71;99738.88;10302528;28;19949;-70
2021/07/27 18:36:11;;;;;;;;;;;;;;;23.04;58.08;99742.09;10302288;28;19936;-70
2021/07/27 18:41:13;;;;;;;;;;;;;;;22.97;58.44;99721.47;10301531;28;20537;-69
2021/07/27 18:46:15;;;;;;;;;;;;;;;22.93;58.42;99727.34;10298579;28;20076;-69
2021/07/27 18:51:17;;;;;;;;;;;;;;;22.84;58.10;99728.66;10299120;28;19929;-68
2021/07/27 18:56:18;;;;;;;;;;;;;;;22.74;58.65;99734.56;10300211;28;20645;-69
2021/07/27 19:01:20;;;;;;;;;;;;;;;22.75;58.67;99747.06;10299748;28;19926;-68
2021/07/27 19:06:21;;;;;;;;;;;;;;;22.65;58.37;99762.94;10300204;28;19933;-70
2021/07/27 19:11:24;;;;;;;;;;;;;;;22.73;57.63;99778.19;10301260;28;20020;-68
2021/07/27 19:16:26;;;;;;;;;;;;;;;22.77;57.59;99798.38;10306162;28;19957;-69
2021/07/27 19:21:27;;;;;;;;;;;;;;;22.70;57.33;99801.13;10300266;28;19929;-67
2021/07/27 19:26:28;;;;;;;;;;;;;;;22.67;57.30;99798.84;10300104;28;20008;-67
2021/07/27 19:31:30;;;;;;;;;;;;;;;22.69;57.22;99793.22;10300395;28;19922;-68
2021/07/27 19:36:31;;;;;;;;;;;;;;;22.67;57.67;99793.41;10296073;28;19977;-68
2021/07/27 19:41:33;;;;;;;;;;;;;;;22.58;57.74;99794.72;10299089;28;19938;-68
2021/07/27 19:51:36;;;;;;;;;;;;;;;22.40;59.48;99798.91;10286503;28;19929;-69
2021/07/27 19:56:37;;;;;;;;;;;;;;;22.35;59.64;99804.16;10287365;28;19972;-68
2021/07/27 20:01:39;;;;;;;;;;;;;;;22.25;59.64;99801.00;10305774;28;19957;-67
2021/07/27 20:06:41;;;;;;;;;;;;;;;22.19;60.08;99801.88;10304315;28;19922;-69
2021/07/27 20:11:42;;;;;;;;;;;;;;;22.22;60.68;99815.00;10307140;28;20106;-68
2021/07/27 20:16:43;;;;;;;;;;;;;;;22.03;61.46;99803.13;10302573;28;20017;-66
2021/07/27 20:21:45;;;;;;;;;;;;;;;21.98;62.47;99822.72;10295105;28;20273;-67
2021/07/27 20:26:46;;;;;;;;;;;;;;;21.85;63.16;99850.63;10290308;28;20012;-69
2021/07/27 20:31:47;;;;;;;;;;;;;;;21.75;65.35;99865.63;10289663;28;19929;-68
2021/07/27 20:36:49;;;;;;;;;;;;;;;21.51;67.25;99866.00;10291932;28;19922;-68
2021/07/27 20:41:50;;;;;;;;;;;;;;;21.44;68.78;99875.09;10293727;28;19964;-66
2021/07/27 20:46:52;;;;;;;;;;;;;;;21.24;69.80;99880.47;10293447;28;20041;-69
2021/07/27 20:51:53;;;;;;;;;;;;;;;21.23;71.89;99903.13;10301665;28;19929;-67
2021/07/27 20:56:55;;;;;;;;;;;;;;;21.32;72.25;99910.06;10292488;28;20025;-67
2021/07/27 21:01:56;;;;;;;;;;;;;;;21.04;71.80;99924.50;10316733;28;20376;-68
2021/07/27 21:07:02;;;;;;;;;;;;;;;20.82;71.68;99924.59;10293231;28;20348;-68
2021/07/27 21:12:04;;;;;;;;;;;;;;;20.75;74.40;99925.59;10298924;28;19936;-69
2021/07/27 21:17:05;;;;;;;;;;;;;;;20.88;71.82;99930.25;10313308;28;20016;-67
2021/07/27 21:22:06;;;;;;;;;;;;;;;20.60;75.57;99902.16;10307647;28;20557;-67
2021/07/27 21:27:08;;;;;;;;;;;;;;;20.80;73.90;99906.88;10310963;28;19929;-67
2021/07/27 21:32:09;;;;;;;;;;;;;;;20.24;74.18;99896.91;10303474;28;19922;-67
2021/07/27 21:37:10;;;;;;;;;;;;;;;20.05;76.43;99899.22;10301953;28;20264;-67
2021/07/27 21:42:12;;;;;;;;;;;;;;;20.43;75.84;99895.38;10310650;28;19980;-68
2021/07/27 21:47:13;;;;;;;;;;;;;;;20.56;76.35;99891.94;10304311;28;19929;-67
2021/07/27 21:52:14;;;;;;;;;;;;;;;20.44;76.32;99889.78;10304419;28;19922;-69
2021/07/27 21:57:16;;;;;;;;;;;;;;;20.51;74.58;99894.38;10306098;28;20025;-68
2021/07/27 22:02:17;;;;;;;;;;;;;;;20.40;74.22;99888.50;10306897;28;19956;-68
2021/07/27 22:07:18;;;;;;;;;;;;;;;20.29;76.36;99894.44;10313476;28;19937;-68
2021/07/27 22:12:20;;;;;;;;;;;;;;;20.34;77.09;99881.16;10307139;28;20611;-68
2021/07/27 22:17:21;;;;;;;;;;;;;;;20.30;75.84;99869.09;10308540;28;19965;-69
2021/07/27 22:22:22;;;;;;;;;;;;;;;20.31;76.33;99865.34;10306255;28;20024;-67
2021/07/27 22:27:25;;;;;;;;;;;;;;;20.28;76.17;99871.16;10297956;28;19922;-67
2021/07/27 22:32:27;;;;;;;;;;;;;;;20.25;76.42;99871.53;10301110;28;20354;-65
2021/07/27 22:37:28;;;;;;;;;;;;;;;20.31;77.27;99870.75;10306196;28;20311;-68
2021/07/27 22:42:30;;;;;;;;;;;;;;;20.27;76.41;99859.50;10302341;28;19932;-68
2021/07/27 22:47:31;;;;;;;;;;;;;;;20.25;76.19;99861.59;10311605;28;20018;-68
2021/07/27 22:52:34;;;;;;;;;;;;;;;20.21;77.21;99870.28;10299566;28;19933;-71
2021/07/27 22:57:35;;;;;;;;;;;;;;;20.17;76.54;99860.88;10308984;28;20503;-67
2021/07/27 23:02:37;;;;;;;;;;;;;;;20.20;77.63;99857.78;10315384;28;19928;-68
2021/07/27 23:07:38;;;;;;;;;;;;;;;20.18;77.80;99865.28;10305806;28;19972;-68
2021/07/27 23:12:40;;;;;;;;;;;;;;;20.17;77.80;99853.59;10295939;28;20004;-68
2021/07/27 23:17:41;;;;;;;;;;;;;;;20.08;77.82;99857.50;10298003;28;20021;-66
2021/07/27 23:22:44;;;;;;;;;;;;;;;20.02;78.24;99855.56;10304638;28;20407;-70
2021/07/27 23:27:45;;;;;;;;;;;;;;;19.96;79.45;99851.78;10312614;28;19926;-68
2021/07/27 23:32:46;;;;;;;;;;;;;;;19.96;79.57;99840.97;10299812;28;20008;-67
2021/07/27 23:37:49;;;;;;;;;;;;;;;19.93;79.28;99835.97;10298419;28;19922;-67
2021/07/27 23:42:50;;;;;;;;;;;;;;;19.93;79.78;99831.38;10296674;28;19928;-68
2021/07/27 23:47:51;;;;;;;;;;;;;;;19.89;79.53;99829.28;10304272;28;19953;-67
2021/07/27 23:52:53;;;;;;;;;;;;;;;19.86;79.22;99840.47;10290926;28;20618;-68
2021/07/27 23:57:54;;;;;;;;;;;;;;;19.81;79.64;99840.22;10301147;28;20008;-68
